Time;durP1;ratioP1;P1;durP2;ratioP2;P2;SDS_P1;SDS_P2;PMS_P1;PMS_P2;Temp;Humidity;BMP_temperature;BMP_pressure;BME280_temperature;BME280_humidity;BME280_pressure;Samples;Min_cycle;Max_cycle;Signal;HPM_P1;HPM_P2
2023/08/26 00:02:19;;;;;;;9.57;7.80;;;16.90;99.90;;;;;;5052803;28;20475;-72
2023/08/26 00:04:46;;;;;;;9.73;6.78;;;16.80;99.90;;;;;;5052761;28;20053;-72
2023/08/26 00:07:12;;;;;;;9.93;7.38;;;16.70;99.90;;;;;;5052753;28;20073;-72
2023/08/26 00:09:37;;;;;;;12.05;7.53;;;16.70;99.90;;;;;;5053636;28;20124;-72
2023/08/26 00:12:03;;;;;;;13.48;7.20;;;16.70;99.90;;;;;;5052388;28;20076;-72
2023/08/26 00:14:29;;;;;;;11.65;8.32;;;16.70;99.90;;;;;;5053766;28;20043;-72
2023/08/26 00:16:55;;;;;;;9.55;8.07;;;16.70;99.90;;;;;;5052359;28;20404;-72
2023/08/26 00:19:20;;;;;;;11.27;8.05;;;16.70;99.90;;;;;;5052233;28;20080;-72
2023/08/26 00:21:47;;;;;;;10.45;7.93;;;16.70;99.90;;;;;;5052610;28;20052;-72
2023/08/26 00:24:14;;;;;;;10.48;8.25;;;16.60;99.90;;;;;;5052431;28;20400;-72
2023/08/26 00:26:39;;;;;;;9.63;7.85;;;16.60;99.90;;;;;;5052428;28;20488;-72
2023/08/26 00:29:08;;;;;;;11.75;7.80;;;16.40;99.90;;;;;;5052406;28;20049;-72
2023/08/26 00:31:33;;;;;;;12.93;7.60;;;16.40;99.90;;;;;;5052478;28;20044;-72
2023/08/26 00:34:02;;;;;;;11.35;7.38;;;16.40;99.90;;;;;;5052488;28;20048;-72
2023/08/26 00:36:28;;;;;;;9.50;7.25;;;16.40;99.90;;;;;;5053440;28;20064;-72
2023/08/26 00:38:54;;;;;;;9.30;6.95;;;16.40;99.90;;;;;;5052123;28;20407;-72
2023/08/26 00:41:19;;;;;;;7.75;6.78;;;16.30;99.90;;;;;;5052047;28;20116;-72
2023/08/26 00:43:46;;;;;;;9.48;7.20;;;16.30;99.90;;;;;;5053563;28;20037;-72
2023/08/26 00:46:13;;;;;;;9.00;7.03;;;16.30;99.90;;;;;;5053134;28;20488;-72
2023/08/26 00:48:39;;;;;;;10.55;6.15;;;16.30;99.90;;;;;;5051783;28;20480;-72
2023/08/26 00:51:05;;;;;;;8.80;6.28;;;16.20;99.90;;;;;;5053356;28;20037;-72
2023/08/26 00:53:31;;;;;;;8.85;5.90;;;16.20;99.90;;;;;;5051855;28;20049;-72
2023/08/26 00:55:57;;;;;;;8.88;6.05;;;16.10;99.90;;;;;;5051901;28;20045;-72
2023/08/26 00:58:23;;;;;;;7.97;6.32;;;16.10;99.90;;;;;;5051843;28;20045;-72
2023/08/26 01:00:49;;;;;;;11.75;5.78;;;16.00;99.90;;;;;;5051925;28;20098;-72
2023/08/26 01:03:14;;;;;;;5.95;4.90;;;16.00;99.90;;;;;;5051904;28;20502;-72
2023/08/26 01:05:40;;;;;;;8.63;4.53;;;16.00;99.90;;;;;;5052212;28;20053;-72
2023/08/26 01:08:06;;;;;;;6.80;4.78;;;16.00;99.90;;;;;;5051698;28;20510;-72
2023/08/26 01:10:50;;;;;;;8.85;4.55;;;16.00;99.90;;;;;;5051746;28;20090;-72
2023/08/26 01:13:20;;;;;;;11.10;4.78;;;16.00;99.90;;;;;;5053058;28;20442;-72
2023/08/26 01:15:49;;;;;;;7.40;4.30;;;15.90;99.90;;;;;;5052106;28;20056;-71
2023/08/26 01:18:15;;;;;;;8.00;4.03;;;15.90;99.90;;;;;;5052985;28;20044;-71
2023/08/26 01:20:42;;;;;;;9.57;4.05;;;15.90;99.90;;;;;;5053043;28;20045;-72
2023/08/26 01:23:17;;;;;;;6.03;3.88;;;15.90;99.90;;;;;;5055223;28;20041;-71
2023/08/26 01:25:43;;;;;;;6.00;3.85;;;15.80;99.90;;;;;;5055696;28;20123;-72
2023/08/26 01:28:08;;;;;;;6.85;4.78;;;15.80;99.90;;;;;;5055679;28;20436;-71
2023/08/26 01:30:35;;;;;;;6.32;4.22;;;15.80;99.90;;;;;;5055525;28;20041;-72
2023/08/26 01:33:09;;;;;;;7.28;4.13;;;15.70;99.90;;;;;;5055210;28;20056;-72
2023/08/26 01:35:41;;;;;;;7.25;4.10;;;15.70;99.90;;;;;;5055204;28;20045;-72
2023/08/26 01:38:11;;;;;;;7.35;4.25;;;15.70;99.90;;;;;;5055329;28;20079;-72
2023/08/26 01:40:40;;;;;;;9.23;4.55;;;15.70;99.90;;;;;;5056355;28;20480;-72
2023/08/26 01:43:07;;;;;;;11.55;4.50;;;15.70;99.90;;;;;;5055243;28;20128;-72
2023/08/26 01:45:34;;;;;;;5.97;3.90;;;15.70;99.90;;;;;;5054911;28;20068;-72
2023/08/26 01:48:00;;;;;;;6.93;3.80;;;15.60;99.90;;;;;;5054886;28;20053;-72
2023/08/26 01:50:25;;;;;;;5.72;3.83;;;15.60;99.90;;;;;;5055281;28;20045;-72
2023/08/26 01:52:51;;;;;;;8.25;3.95;;;15.60;99.90;;;;;;5056224;28;20041;-72
2023/08/26 01:55:17;;;;;;;5.00;3.20;;;15.50;99.90;;;;;;5056110;28;20095;-72
2023/08/26 01:57:42;;;;;;;7.50;3.40;;;15.50;99.90;;;;;;5054846;28;20426;-72
2023/08/26 02:00:08;;;;;;;6.07;3.13;;;15.50;99.90;;;;;;5054904;28;20448;-71
2023/08/26 02:02:34;;;;;;;5.32;2.88;;;15.40;99.90;;;;;;5054669;28;20136;-72
2023/08/26 02:04:59;;;;;;;5.72;3.13;;;15.40;99.90;;;;;;5054696;28;20124;-71
2023/08/26 02:07:25;;;;;;;4.32;2.80;;;15.30;99.90;;;;;;5055911;28;20053;-71
2023/08/26 02:09:51;;;;;;;5.13;2.63;;;15.30;99.90;;;;;;5054677;28;20043;-71
2023/08/26 02:12:16;;;;;;;4.35;2.60;;;15.20;99.90;;;;;;5054599;28;20132;-71
2023/08/26 02:14:42;;;;;;;4.57;2.50;;;15.20;99.90;;;;;;5054351;28;20041;-72
2023/08/26 02:17:07;;;;;;;6.13;2.63;;;15.20;99.90;;;;;;5054367;28;20507;-72
2023/08/26 02:19:33;;;;;;;6.18;2.80;;;15.10;99.90;;;;;;5054275;28;20174;-71
2023/08/26 02:22:00;;;;;;;3.83;2.50;;;15.10;99.90;;;;;;5055491;28;20047;-72
2023/08/26 02:24:26;;;;;;;4.30;2.40;;;15.00;99.90;;;;;;5055614;28;20053;-72
2023/08/26 02:26:51;;;;;;;6.53;2.30;;;15.00;99.90;;;;;;5054541;28;20048;-72
2023/08/26 02:29:17;;;;;;;6.35;2.45;;;14.90;99.90;;;;;;5054064;28;20041;-72
2023/08/26 02:31:43;;;;;;;4.63;2.67;;;14.90;99.90;;;;;;5055677;28;20080;-72
2023/08/26 02:34:12;;;;;;;3.95;2.60;;;14.90;99.90;;;;;;5052853;28;20051;-72
2023/08/26 02:36:37;;;;;;;4.97;2.70;;;14.80;99.90;;;;;;5054041;28;20049;-72
2023/08/26 02:39:03;;;;;;;6.53;3.00;;;14.80;99.90;;;;;;5053665;28;20136;-72
2023/08/26 02:41:28;;;;;;;4.20;2.20;;;14.70;99.90;;;;;;5053789;28;20064;-72
2023/08/26 02:43:54;;;;;;;4.88;2.00;;;14.70;99.90;;;;;;5053813;28;20068;-72
2023/08/26 02:46:20;;;;;;;3.50;2.15;;;14.70;99.90;;;;;;5053717;28;20055;-71
2023/08/26 02:48:46;;;;;;;4.00;2.20;;;14.60;99.90;;;;;;5055141;28;20118;-72
2023/08/26 02:51:11;;;;;;;4.00;2.30;;;14.60;99.90;;;;;;5055011;28;20076;-71
2023/08/26 02:53:37;;;;;;;4.60;2.63;;;14.60;99.90;;;;;;5053743;28;20063;-72
2023/08/26 02:56:02;;;;;;;5.65;2.13;;;14.50;99.90;;;;;;5053825;28;20087;-71
2023/08/26 02:58:28;;;;;;;3.88;1.98;;;14.50;99.90;;;;;;5053394;28;20399;-71
2023/08/26 03:00:57;;;;;;;6.10;2.65;;;14.50;99.90;;;;;;5053796;28;20487;-72
2023/08/26 03:03:22;;;;;;;4.00;2.28;;;14.40;99.90;;;;;;5054880;28;20045;-72
2023/08/26 03:05:48;;;;;;;5.30;2.40;;;14.30;99.90;;;;;;5053898;28;20056;-72
2023/08/26 03:08:13;;;;;;;3.92;2.30;;;14.30;99.90;;;;;;5053507;28;20503;-71
2023/08/26 03:10:39;;;;;;;5.45;2.20;;;14.30;99.90;;;;;;5053367;28;20043;-72
2023/08/26 03:13:07;;;;;;;5.53;2.90;;;14.20;99.90;;;;;;5053336;28;20126;-71
2023/08/26 03:15:33;;;;;;;5.68;2.83;;;14.20;99.90;;;;;;5053282;28;20037;-71
2023/08/26 03:17:59;;;;;;;6.70;2.78;;;14.10;99.90;;;;;;5053547;28;20044;-71
2023/08/26 03:20:24;;;;;;;5.50;2.33;;;14.10;99.90;;;;;;5054631;28;20049;-71
2023/08/26 03:22:50;;;;;;;8.40;2.60;;;14.10;99.90;;;;;;5054653;28;20116;-72
2023/08/26 03:25:17;;;;;;;5.10;2.40;;;14.10;99.90;;;;;;5053066;28;20084;-71
2023/08/26 03:27:42;;;;;;;4.32;2.70;;;14.00;99.90;;;;;;5054251;28;20048;-71
2023/08/26 03:30:08;;;;;;;5.50;2.50;;;14.00;99.90;;;;;;5052979;28;20047;-72
2023/08/26 03:32:34;;;;;;;7.40;3.30;;;13.90;99.90;;;;;;5054262;28;20051;-71
2023/08/26 03:35:00;;;;;;;5.47;3.28;;;13.90;99.90;;;;;;5053244;28;20064;-72
2023/08/26 03:37:26;;;;;;;5.55;2.97;;;13.90;99.90;;;;;;5053182;28;20087;-71
2023/08/26 03:39:51;;;;;;;4.13;2.60;;;13.80;99.90;;;;;;5052763;28;20068;-72
2023/08/26 03:42:17;;;;;;;7.18;2.90;;;13.80;99.90;;;;;;5052987;28;20037;-72
2023/08/26 03:44:43;;;;;;;7.43;3.42;;;13.80;99.90;;;;;;5052204;28;20052;-72
2023/08/26 03:47:08;;;;;;;5.55;2.92;;;13.70;99.90;;;;;;5054043;28;20053;-72
2023/08/26 03:49:34;;;;;;;5.18;3.53;;;13.70;99.90;;;;;;5052775;28;20120;-71
2023/08/26 03:52:00;;;;;;;4.90;3.55;;;13.70;99.90;;;;;;5052712;28;20045;-72
2023/08/26 03:54:25;;;;;;;4.60;3.67;;;13.60;99.90;;;;;;5052758;28;20123;-72
2023/08/26 03:56:51;;;;;;;7.25;3.75;;;13.60;99.90;;;;;;5052528;28;20071;-72
2023/08/26 03:59:17;;;;;;;7.03;3.72;;;13.60;99.90;;;;;;5053732;28;20049;-71
2023/08/26 04:01:43;;;;;;;6.13;3.33;;;13.60;99.90;;;;;;5052817;28;20068;-71
2023/08/26 04:04:08;;;;;;;6.75;3.25;;;13.60;99.90;;;;;;5052571;28;20103;-71
2023/08/26 04:06:34;;;;;;;4.80;3.22;;;13.60;99.90;;;;;;5052491;28;20090;-71
2023/08/26 04:09:02;;;;;;;4.85;3.10;;;13.60;99.90;;;;;;5053787;28;20052;-71
2023/08/26 04:11:28;;;;;;;9.88;3.75;;;13.60;99.90;;;;;;5053762;28;20045;-72
2023/08/26 04:13:53;;;;;;;6.70;3.13;;;13.50;99.90;;;;;;5053739;28;20037;-71
2023/08/26 04:16:21;;;;;;;4.25;3.05;;;13.50;99.90;;;;;;5052598;28;20507;-71
2023/08/26 04:18:47;;;;;;;6.63;3.17;;;13.40;99.90;;;;;;5053625;28;20045;-72
2023/08/26 04:21:13;;;;;;;6.05;3.05;;;13.40;99.90;;;;;;5052396;28;20045;-71
2023/08/26 04:23:39;;;;;;;5.05;3.33;;;13.40;99.90;;;;;;5052099;28;20053;-72
2023/08/26 04:26:04;;;;;;;4.20;2.95;;;13.40;99.90;;;;;;5052373;28;20045;-72
2023/08/26 04:28:31;;;;;;;5.30;3.20;;;13.40;99.90;;;;;;5052298;28;20523;-72
2023/08/26 04:31:00;;;;;;;5.63;3.20;;;13.40;99.90;;;;;;5051786;28;20400;-71
2023/08/26 04:33:26;;;;;;;7.25;3.33;;;13.40;99.90;;;;;;5050894;28;20045;-71
2023/08/26 04:35:51;;;;;;;4.38;3.13;;;13.40;99.90;;;;;;5051856;28;20041;-71
2023/08/26 04:38:17;;;;;;;4.88;3.08;;;13.40;99.90;;;;;;5052163;28;20073;-71
2023/08/26 04:40:43;;;;;;;5.03;3.33;;;13.40;99.90;;;;;;5051940;28;20087;-71
2023/08/26 04:43:10;;;;;;;6.65;3.33;;;13.40;99.90;;;;;;5051926;28;20442;-71
2023/08/26 04:45:37;;;;;;;8.35;3.67;;;13.50;99.90;;;;;;5051661;28;20439;-71
2023/08/26 04:48:05;;;;;;;7.38;4.25;;;13.50;99.90;;;;;;5053259;28;20048;-71
2023/08/26 04:50:31;;;;;;;8.13;4.63;;;13.60;99.90;;;;;;5053334;28;20120;-71
2023/08/26 04:52:57;;;;;;;6.97;4.80;;;13.70;99.90;;;;;;5052996;28;20124;-71
2023/08/26 04:55:25;;;;;;;7.78;4.65;;;13.70;99.90;;;;;;5051735;28;20488;-71
2023/08/26 04:57:51;;;;;;;10.13;4.95;;;13.70;99.90;;;;;;5054699;28;20063;-71
2023/08/26 05:00:17;;;;;;;8.30;3.95;;;13.70;99.90;;;;;;5055954;28;20102;-71
2023/08/26 05:02:43;;;;;;;7.00;4.47;;;13.70;99.90;;;;;;5055420;28;20095;-71
2023/08/26 05:05:11;;;;;;;7.68;4.18;;;13.70;99.90;;;;;;5055559;28;20106;-71
2023/08/26 05:07:37;;;;;;;5.65;4.10;;;13.70;99.90;;;;;;5057013;28;20044;-71
2023/08/26 05:10:04;;;;;;;9.73;4.15;;;13.70;99.90;;;;;;5055717;28;20049;-70
2023/08/26 05:12:30;;;;;;;8.90;4.30;;;13.80;99.90;;;;;;5055515;28;20124;-71
2023/08/26 05:14:56;;;;;;;6.90;4.50;;;13.80;99.90;;;;;;5055361;28;20507;-71
2023/08/26 05:17:22;;;;;;;6.38;4.05;;;13.80;99.90;;;;;;5055280;28;20045;-71
2023/08/26 05:19:48;;;;;;;7.70;4.40;;;13.80;99.90;;;;;;5055217;28;20045;-71
2023/08/26 05:22:13;;;;;;;5.90;4.38;;;13.80;99.90;;;;;;5056570;28;20060;-71
2023/08/26 05:24:39;;;;;;;8.18;4.40;;;13.90;99.90;;;;;;5055319;28;20049;-71
2023/08/26 05:27:05;;;;;;;7.50;4.50;;;13.80;99.90;;;;;;5055385;28;20045;-71
2023/08/26 05:29:31;;;;;;;6.72;4.20;;;13.80;99.90;;;;;;5055428;28;20090;-71
2023/08/26 05:31:56;;;;;;;8.73;4.60;;;13.80;99.90;;;;;;5055130;28;20128;-71
2023/08/26 05:34:25;;;;;;;6.00;4.70;;;13.90;99.90;;;;;;5056277;28;20480;-71
2023/08/26 05:36:51;;;;;;;7.72;4.38;;;13.90;99.90;;;;;;5055305;28;20088;-71
2023/08/26 05:39:19;;;;;;;6.72;4.50;;;14.00;99.90;;;;;;5054032;28;20048;-71
2023/08/26 05:41:45;;;;;;;7.60;4.57;;;14.00;99.90;;;;;;5056010;28;20507;-71
2023/08/26 05:44:10;;;;;;;11.70;4.90;;;14.10;99.90;;;;;;5056209;28;20065;-72
2023/08/26 05:46:36;;;;;;;6.90;4.60;;;14.20;99.90;;;;;;5054541;28;20181;-72
2023/08/26 05:49:02;;;;;;;6.68;4.82;;;14.30;99.90;;;;;;5056029;28;20088;-71
2023/08/26 05:51:28;;;;;;;6.85;4.68;;;14.40;99.90;;;;;;5054709;28;20453;-71
2023/08/26 05:53:53;;;;;;;7.15;4.75;;;14.40;99.90;;;;;;5054674;28;20045;-72
2023/08/26 05:56:19;;;;;;;6.53;5.07;;;14.50;99.90;;;;;;5046855;28;20049;-70
2023/08/26 05:58:45;;;;;;;8.70;4.55;;;14.60;99.90;;;;;;5034413;28;20049;-70
2023/08/26 06:01:10;;;;;;;9.30;4.63;;;14.70;99.90;;;;;;5034286;28;20049;-71
2023/08/26 06:03:36;;;;;;;7.90;4.45;;;14.80;99.90;;;;;;5034690;28;20051;-70
2023/08/26 06:06:03;;;;;;;7.45;4.65;;;14.90;99.90;;;;;;5034373;28;20045;-75
2023/08/26 06:08:29;;;;;;;8.15;4.50;;;15.10;99.90;;;;;;5035469;28;20041;-71
2023/08/26 06:10:55;;;;;;;6.75;4.20;;;15.20;99.90;;;;;;5034436;28;20190;-72
2023/08/26 06:13:21;;;;;;;9.68;4.28;;;15.30;99.90;;;;;;5047070;28;20511;-70
2023/08/26 06:15:53;;;;;;;8.18;4.22;;;15.40;99.90;;;;;;5053141;28;20041;-71
2023/08/26 06:18:19;;;;;;;7.43;4.57;;;15.60;99.90;;;;;;5053999;28;20480;-71
2023/08/26 06:20:45;;;;;;;7.43;3.78;;;15.70;99.90;;;;;;5054531;28;20056;-71
2023/08/26 06:23:10;;;;;;;6.53;4.47;;;15.80;99.90;;;;;;5055199;28;20033;-71
2023/08/26 06:25:36;;;;;;;5.82;4.20;;;15.90;99.90;;;;;;5055161;28;20115;-71
2023/08/26 06:28:01;;;;;;;8.80;4.40;;;16.00;99.90;;;;;;5053863;28;20056;-70
2023/08/26 06:30:27;;;;;;;8.75;4.55;;;16.10;99.90;;;;;;5052968;28;20130;-71
2023/08/26 06:32:53;;;;;;;6.95;4.60;;;16.10;99.90;;;;;;5053133;28;20503;-71
2023/08/26 06:35:18;;;;;;;10.75;4.60;;;16.30;99.90;;;;;;5053474;28;20048;-71
2023/08/26 06:37:44;;;;;;;7.55;4.70;;;16.40;99.90;;;;;;5053525;28;20040;-71
2023/08/26 06:40:10;;;;;;;6.35;4.40;;;16.50;99.90;;;;;;5053122;28;20045;-71
2023/08/26 06:42:36;;;;;;;7.82;4.30;;;16.60;99.90;;;;;;5053368;28;20424;-71
2023/08/26 06:45:02;;;;;;;5.97;4.38;;;16.60;99.90;;;;;;5053381;28;20056;-71
2023/08/26 06:47:27;;;;;;;8.70;4.78;;;16.60;99.90;;;;;;5052719;28;20053;-71
2023/08/26 06:49:53;;;;;;;8.23;4.40;;;16.50;99.90;;;;;;5054822;28;20044;-71
2023/08/26 06:52:19;;;;;;;8.07;4.25;;;16.50;99.90;;;;;;5052712;28;20045;-71
2023/08/26 06:54:48;;;;;;;7.65;4.28;;;16.70;99.90;;;;;;5052839;28;20128;-71
2023/08/26 06:57:13;;;;;;;5.80;3.75;;;16.60;99.90;;;;;;5053259;28;20098;-71
2023/08/26 06:59:39;;;;;;;5.38;4.00;;;16.70;99.90;;;;;;5053116;28;20045;-70
2023/08/26 07:02:05;;;;;;;8.88;4.78;;;16.60;99.90;;;;;;5053481;28;20048;-71
2023/08/26 07:04:31;;;;;;;7.18;4.10;;;16.60;99.90;;;;;;5054253;28;20376;-73
2023/08/26 07:06:57;;;;;;;7.82;4.07;;;16.80;99.90;;;;;;5053014;28;20075;-70
2023/08/26 07:09:25;;;;;;;6.80;3.25;;;16.70;99.90;;;;;;5052939;28;20476;-70
2023/08/26 07:11:51;;;;;;;6.15;3.40;;;16.90;99.90;;;;;;5052977;28;20071;-72
2023/08/26 07:14:24;;;;;;;7.97;3.17;;;17.10;99.90;;;;;;5052922;28;20139;-74
2023/08/26 07:16:50;;;;;;;5.60;3.28;;;17.20;99.90;;;;;;5053198;28;20388;-72
2023/08/26 07:19:15;;;;;;;5.32;3.30;;;17.10;99.90;;;;;;5052194;28;20120;-72
2023/08/26 07:21:41;;;;;;;7.38;3.80;;;17.10;99.90;;;;;;5052873;28;20099;-72
2023/08/26 07:24:10;;;;;;;4.97;2.97;;;17.10;99.90;;;;;;5053877;28;20056;-72
2023/08/26 07:26:36;;;;;;;5.80;3.20;;;17.00;99.90;;;;;;5053407;28;20085;-72
2023/08/26 07:29:02;;;;;;;6.10;3.50;;;16.90;99.90;;;;;;5054217;28;20055;-72
2023/08/26 07:31:27;;;;;;;5.60;3.67;;;16.70;99.90;;;;;;5053004;28;20057;-72
2023/08/26 07:33:53;;;;;;;6.63;3.90;;;16.80;99.90;;;;;;5053207;28;20041;-72
2023/08/26 07:36:18;;;;;;;7.28;4.63;;;16.90;99.90;;;;;;5053222;28;20033;-72
2023/08/26 07:38:44;;;;;;;6.43;4.55;;;17.10;99.90;;;;;;5052241;28;20480;-72
2023/08/26 07:41:10;;;;;;;8.57;4.88;;;17.30;99.90;;;;;;5052491;28;20068;-72
2023/08/26 07:43:37;;;;;;;12.05;6.22;;;17.50;99.90;;;;;;5052603;28;20053;-72
2023/08/26 07:46:03;;;;;;;7.60;5.25;;;17.60;99.90;;;;;;5052297;28;20052;-72
2023/08/26 07:48:29;;;;;;;8.20;6.80;;;17.80;99.90;;;;;;5052575;28;20115;-72
2023/08/26 07:50:58;;;;;;;9.45;7.75;;;17.90;99.90;;;;;;5052417;28;20550;-72
2023/08/26 07:53:26;;;;;;;10.77;8.25;;;17.90;99.90;;;;;;5052706;28;20056;-72
2023/08/26 07:55:55;;;;;;;11.98;8.75;;;18.00;99.90;;;;;;5052215;28;20408;-72
2023/08/26 07:58:23;;;;;;;10.73;8.23;;;18.10;99.90;;;;;;5052557;28;20055;-72
2023/08/26 08:00:49;;;;;;;14.10;8.73;;;18.10;99.90;;;;;;5052457;28;20438;-72
2023/08/26 08:03:15;;;;;;;11.30;8.45;;;18.20;99.90;;;;;;5052258;28;20048;-72
2023/08/26 08:05:41;;;;;;;12.85;7.75;;;18.40;99.90;;;;;;5053533;28;20458;-72
2023/08/26 08:08:06;;;;;;;14.23;8.98;;;18.50;99.90;;;;;;5052238;28;20137;-72
2023/08/26 08:10:32;;;;;;;11.20;8.30;;;18.60;99.90;;;;;;5052299;28;20120;-72
2023/08/26 08:12:57;;;;;;;12.77;9.30;;;18.70;99.90;;;;;;5053363;28;20041;-72
2023/08/26 08:15:23;;;;;;;13.43;10.20;;;18.70;99.90;;;;;;5052033;28;20041;-72
2023/08/26 08:17:49;;;;;;;16.98;10.70;;;18.50;99.90;;;;;;5053198;28;20124;-72
2023/08/26 08:20:14;;;;;;;15.65;10.05;;;18.50;99.90;;;;;;5052377;28;20171;-72
2023/08/26 08:22:43;;;;;;;15.77;11.57;;;18.40;99.90;;;;;;5051958;28;20040;-72
2023/08/26 08:25:09;;;;;;;15.05;10.70;;;18.50;99.90;;;;;;5052050;28;20403;-72
2023/08/26 08:27:39;;;;;;;14.82;11.32;;;18.60;99.90;;;;;;5053498;28;20120;-72
2023/08/26 08:30:11;;;;;;;14.93;10.98;;;18.80;99.90;;;;;;5051956;28;20083;-72
2023/08/26 08:32:43;;;;;;;12.82;10.60;;;18.80;99.90;;;;;;5056105;28;20048;-72
2023/08/26 08:35:09;;;;;;;15.73;11.63;;;18.90;99.90;;;;;;5056090;28;20041;-72
2023/08/26 08:37:35;;;;;;;13.85;10.75;;;18.70;99.90;;;;;;5056049;28;20369;-72
2023/08/26 08:40:01;;;;;;;13.73;10.82;;;18.70;99.90;;;;;;5057338;28;20550;-72
2023/08/26 08:42:27;;;;;;;15.70;11.15;;;18.60;99.90;;;;;;5056313;28;20041;-72
2023/08/26 08:44:55;;;;;;;13.75;10.68;;;18.70;99.90;;;;;;5055871;28;20057;-72
2023/08/26 08:47:21;;;;;;;12.18;10.85;;;18.60;99.90;;;;;;5057485;28;20081;-72
2023/08/26 08:49:48;;;;;;;14.73;11.93;;;18.30;99.90;;;;;;5056074;28;20053;-72
2023/08/26 08:52:15;;;;;;;13.50;12.07;;;18.30;99.90;;;;;;5055787;28;20051;-72
2023/08/26 08:54:44;;;;;;;13.57;11.77;;;18.30;99.90;;;;;;5056943;28;20052;-72
2023/08/26 08:57:13;;;;;;;12.45;8.13;;;18.20;99.90;;;;;;5055754;28;20492;-72
2023/08/26 08:59:39;;;;;;;10.23;6.95;;;18.30;99.90;;;;;;5055485;28;20408;-72
2023/08/26 09:02:06;;;;;;;8.43;6.40;;;18.40;99.90;;;;;;5055573;28;20120;-72
2023/08/26 09:04:32;;;;;;;10.88;7.20;;;18.60;99.90;;;;;;5055795;28;20096;-72
2023/08/26 09:06:57;;;;;;;9.60;7.15;;;18.60;99.90;;;;;;5056974;28;20049;-72
2023/08/26 09:09:23;;;;;;;11.68;8.30;;;18.50;99.90;;;;;;5056828;28;20036;-72
2023/08/26 09:11:50;;;;;;;11.85;8.65;;;18.40;99.90;;;;;;5055743;28;20049;-72
2023/08/26 09:14:16;;;;;;;12.23;8.65;;;18.50;99.90;;;;;;5055530;28;20036;-72
2023/08/26 09:16:43;;;;;;;10.90;9.07;;;18.60;99.90;;;;;;5056666;28;20481;-72
2023/08/26 09:19:15;;;;;;;10.82;8.93;;;18.70;99.90;;;;;;5055281;28;20049;-72
2023/08/26 09:21:42;;;;;;;11.23;7.40;;;18.80;99.90;;;;;;5055270;28;20048;-72
2023/08/26 09:24:15;;;;;;;10.75;6.03;;;19.00;99.90;;;;;;5055210;28;20044;-72
2023/08/26 09:26:43;;;;;;;8.05;4.63;;;19.10;99.90;;;;;;5055441;28;20071;-72
2023/08/26 09:29:22;;;;;;;5.97;3.55;;;19.10;99.90;;;;;;5055383;28;20045;-72
2023/08/26 09:31:49;;;;;;;8.40;4.50;;;19.20;99.90;;;;;;5055246;28;20040;-72
2023/08/26 09:34:32;;;;;;;5.68;3.83;;;19.20;99.90;;;;;;5056536;28;20056;-72
2023/08/26 09:37:01;;;;;;;4.65;3.30;;;19.40;99.90;;;;;;5056344;28;20041;-72
2023/08/26 09:39:27;;;;;;;5.47;2.70;;;19.50;99.90;;;;;;5054981;28;20045;-72
2023/08/26 09:41:55;;;;;;;3.38;2.42;;;19.60;99.90;;;;;;5055881;28;20400;-72
2023/08/26 09:44:23;;;;;;;3.72;1.95;;;19.60;99.90;;;;;;5054678;28;20055;-72
2023/08/26 09:46:55;;;;;;;2.75;1.80;;;19.50;99.90;;;;;;5054372;28;20389;-72
2023/08/26 09:49:21;;;;;;;5.07;1.90;;;19.50;99.90;;;;;;5054768;28;20415;-72
2023/08/26 09:51:49;;;;;;;4.03;1.85;;;19.50;99.90;;;;;;5054646;28;20037;-72
2023/08/26 09:54:18;;;;;;;3.83;1.83;;;19.50;99.90;;;;;;5054721;28;20063;-72
2023/08/26 09:56:45;;;;;;;3.78;1.70;;;19.50;99.90;;;;;;5055140;28;20057;-72
2023/08/26 09:59:11;;;;;;;3.47;1.80;;;19.50;99.90;;;;;;5054764;28;20056;-72
2023/08/26 10:01:39;;;;;;;4.32;1.70;;;19.50;99.90;;;;;;5054530;28;20041;-72
2023/08/26 10:04:08;;;;;;;3.97;1.88;;;19.40;99.90;;;;;;5054454;28;20484;-72
2023/08/26 10:06:42;;;;;;;4.15;1.58;;;19.50;99.90;;;;;;5054718;28;20045;-72
2023/08/26 10:09:32;;;;;;;4.38;1.40;;;19.40;99.90;;;;;;5054425;28;20132;-72
2023/08/26 10:12:01;;;;;;;2.65;1.50;;;19.40;99.90;;;;;;5054659;28;20084;-72
2023/08/26 10:14:29;;;;;;;3.85;1.55;;;19.50;99.90;;;;;;5054700;28;20052;-72
2023/08/26 10:16:56;;;;;;;6.13;1.70;;;19.40;99.90;;;;;;5054559;28;20056;-72
2023/08/26 10:19:23;;;;;;;6.57;1.88;;;19.40;99.90;;;;;;5054259;28;20076;-72
2023/08/26 10:21:50;;;;;;;6.60;1.98;;;19.40;99.90;;;;;;5054215;28;20037;-72
2023/08/26 10:24:17;;;;;;;3.95;2.08;;;19.30;99.90;;;;;;5055589;28;20045;-72
2023/08/26 10:26:43;;;;;;;5.30;2.33;;;19.30;99.90;;;;;;5055455;28;20040;-72
2023/08/26 10:29:10;;;;;;;4.53;1.85;;;19.30;99.90;;;;;;5054497;28;20064;-72
2023/08/26 10:31:38;;;;;;;6.53;1.83;;;19.10;99.90;;;;;;5054319;28;20049;-73
2023/08/26 10:34:07;;;;;;;4.03;1.88;;;19.10;99.90;;;;;;5053981;28;20403;-72
2023/08/26 10:36:37;;;;;;;5.28;2.00;;;19.00;99.90;;;;;;5055294;28;20049;-73
2023/08/26 10:39:04;;;;;;;4.85;1.95;;;18.90;99.90;;;;;;5055303;28;20044;-72
2023/08/26 10:41:30;;;;;;;4.45;2.30;;;19.00;99.90;;;;;;5055300;28;20087;-72
2023/08/26 10:44:01;;;;;;;4.00;1.95;;;18.90;99.90;;;;;;5054161;28;20124;-71
2023/08/26 10:46:36;;;;;;;3.55;1.98;;;18.80;99.90;;;;;;5053688;28;20041;-72
2023/08/26 10:49:03;;;;;;;4.50;1.90;;;18.90;99.90;;;;;;5053883;28;20063;-72
2023/08/26 10:51:35;;;;;;;3.90;2.20;;;19.10;99.90;;;;;;5055225;28;20045;-72
2023/08/26 10:54:03;;;;;;;5.20;2.35;;;19.20;99.90;;;;;;5052864;28;20656;-72
2023/08/26 10:56:33;;;;;;;4.38;2.25;;;19.40;99.90;;;;;;5054812;28;20048;-72
2023/08/26 10:59:06;;;;;;;7.93;2.88;;;19.80;99.90;;;;;;5053630;28;20234;-72
2023/08/26 11:01:36;;;;;;;7.32;3.65;;;20.00;99.90;;;;;;5054216;28;20045;-72
2023/08/26 11:04:05;;;;;;;7.13;4.38;;;20.20;99.90;;;;;;5055101;28;20049;-72
2023/08/26 11:06:39;;;;;;;7.00;4.07;;;20.20;99.90;;;;;;5053569;28;20056;-72
2023/08/26 11:09:05;;;;;;;;;;;19.90;99.90;;;;;;5054064;28;20048;-72
2023/08/26 11:11:32;;;;;;;6.25;3.55;;;20.00;99.90;;;;;;5054578;28;19928;-72
2023/08/26 11:14:00;;;;;;;7.18;3.60;;;20.10;99.90;;;;;;5054535;28;20059;-72
2023/08/26 11:16:28;;;;;;;9.80;4.05;;;20.30;99.90;;;;;;5053188;28;20098;-72
2023/08/26 11:18:57;;;;;;;5.43;4.15;;;20.40;99.90;;;;;;5054333;28;20053;-72
2023/08/26 11:21:26;;;;;;;5.03;3.30;;;20.40;99.90;;;;;;5053258;28;20052;-72
2023/08/26 11:23:54;;;;;;;6.18;3.50;;;20.40;99.90;;;;;;5053438;28;20144;-72
2023/08/26 11:26:21;;;;;;;4.22;2.78;;;20.40;99.90;;;;;;5053171;28;20083;-73
2023/08/26 11:28:48;;;;;;;5.93;2.70;;;20.30;99.90;;;;;;5052778;28;20124;-73
2023/08/26 11:31:14;;;;;;;3.65;2.20;;;20.50;99.90;;;;;;5054443;28;20638;-72
2023/08/26 11:33:40;;;;;;;3.08;1.88;;;20.70;99.90;;;;;;5054394;28;20079;-73
2023/08/26 11:36:06;;;;;;;3.78;1.83;;;20.70;99.90;;;;;;5054302;28;20122;-72
2023/08/26 11:38:38;;;;;;;3.15;1.05;;;20.80;99.90;;;;;;5054090;28;20057;-72
2023/08/26 11:41:08;;;;;;;2.38;1.30;;;20.90;99.90;;;;;;5054295;28;20072;-72
2023/08/26 11:43:37;;;;;;;2.55;1.33;;;20.70;99.90;;;;;;5052962;28;20049;-72
2023/08/26 11:46:26;;;;;;;4.07;1.65;;;20.80;99.90;;;;;;5052883;28;20126;-73
2023/08/26 11:48:52;;;;;;;2.80;1.30;;;20.90;99.90;;;;;;5053000;28;20052;-72
2023/08/26 11:51:18;;;;;;;4.90;1.90;;;21.10;99.90;;;;;;5053253;28;20040;-72
2023/08/26 11:53:44;;;;;;;6.03;1.85;;;21.10;99.90;;;;;;5053835;28;20051;-72
2023/08/26 11:56:09;;;;;;;3.78;1.88;;;21.20;99.90;;;;;;5052538;28;20041;-72
2023/08/26 11:58:37;;;;;;;6.15;1.70;;;21.20;99.90;;;;;;5053848;28;20476;-72
2023/08/26 12:01:07;;;;;;;2.65;1.30;;;21.30;99.90;;;;;;5052418;28;20071;-72
2023/08/26 12:03:40;;;;;;;2.92;1.30;;;21.30;99.90;;;;;;5052425;28;20475;-72
2023/08/26 12:06:07;;;;;;;2.83;1.27;;;21.30;99.90;;;;;;5052146;28;20132;-72
2023/08/26 12:08:33;;;;;;;2.40;0.98;;;21.30;99.90;;;;;;5052547;28;20053;-72
2023/08/26 12:10:59;;;;;;;3.20;1.42;;;21.30;99.90;;;;;;5052506;28;20056;-72
2023/08/26 12:13:45;;;;;;;3.25;1.30;;;21.10;99.90;;;;;;5053777;28;20071;-72
2023/08/26 12:16:12;;;;;;;3.28;1.35;;;20.90;99.90;;;;;;5052407;28;20099;-72
2023/08/26 12:18:41;;;;;;;3.95;1.80;;;20.80;99.90;;;;;;5052303;28;20128;-72
2023/08/26 12:21:07;;;;;;;2.70;1.27;;;20.70;99.90;;;;;;5052146;28;20055;-73
2023/08/26 12:23:32;;;;;;;2.28;1.17;;;20.70;99.90;;;;;;5052470;28;20140;-72
2023/08/26 12:25:58;;;;;;;4.05;1.30;;;20.70;99.90;;;;;;5053546;28;20056;-72
2023/08/26 12:28:24;;;;;;;4.95;1.10;;;20.80;99.90;;;;;;5052149;28;20098;-72
2023/08/26 12:30:51;;;;;;;4.22;1.05;;;20.90;99.90;;;;;;5051931;28;20045;-72
2023/08/26 12:33:17;;;;;;;4.15;1.27;;;20.80;99.90;;;;;;5053288;28;20044;-72
2023/08/26 12:35:44;;;;;;;2.47;0.90;;;20.80;99.90;;;;;;5052358;28;20049;-72
2023/08/26 12:38:10;;;;;;;2.92;1.00;;;20.80;99.90;;;;;;5053440;28;20041;-72
2023/08/26 12:40:39;;;;;;;2.55;0.98;;;20.80;99.90;;;;;;5052195;28;20084;-72
2023/08/26 12:43:07;;;;;;;3.78;0.98;;;20.70;99.90;;;;;;5052134;28;20131;-72
2023/08/26 12:45:35;;;;;;;4.38;0.95;;;20.80;99.90;;;;;;5051605;28;20057;-73